<?xml version="1.0" encoding="UTF-8" standalone="no" ?>
<gpx xmlns="http://www.topografix.com/GPX/1/1" xmlns:xsi="http://www.w3.org/2001/XMLSchema-instance" xsi:schemaLocation="http://www.topografix.com/GPX/1/1 http://www.topografix.com/GPX/1/1/gpx.xsd" version="1.1" creator="VisuGPX - https://www.visugpx.com">
  <metadata>
    <name>GR5, en deux temps !</name>
    <desc><![CDATA[Il m'a fallu deux étés pour boucler cette partie du GR5 en 30 jours, ne disposant pas d'en temps suffisant pour le réaliser en une seule fois.
J'ai acheté une tente pour l'occasion, n'ayant fait que des périples à la belle étoile jusque là. Un achat bien vite appréciable en temps de pluie !
J'ai acheté aussi une cape aux Houches, et elle m'a bien servie. 
Ce périple laisse en moi des souvenirs inoubliables, de belles rencontres, de beaux paysages, et tant de bonheur... ponctués de jours de pluie, d'ampoules, voire même d'une indigestion rendant une nuit et son lendemain bien difficiles, mais forgeant le dépassement de soi. Ce périple est un réel moment de liberté mentale, seule avec les éléments. 
Chaque redescente marquant la fin du périple fût difficile... Mais initiatrices d'une nouvelle fois !!!!!
Il y a tant à explorer........]]></desc>
  </metadata>
  <trk>
    <name><![CDATA[J19 - Ceillac - Prologue Village]]></name>
    <trkseg>
      <trkpt lat="44.67131" lon="6.78328">
        <ele>1686.5999755859</ele>
        <time>2018-08-08T06:39:05.000Z</time>
      </trkpt>
      <trkpt lat="44.67129" lon="6.7833">
        <ele>1686</ele>
        <time>2018-08-08T06:40:21.000Z</time>
      </trkpt>
      <trkpt lat="44.67135" lon="6.78315">
        <ele>1689.4000244141</ele>
        <time>2018-08-08T06:40:40.000Z</time>
      </trkpt>
      <trkpt lat="44.67144" lon="6.78294">
        <ele>1692.4000244141</ele>
        <time>2018-08-08T06:40:52.000Z</time>
      </trkpt>
      <trkpt lat="44.67134" lon="6.78275">
        <ele>1689</ele>
        <time>2018-08-08T06:41:08.000Z</time>
      </trkpt>
      <trkpt lat="44.67129" lon="6.7827">
        <ele>1687.1999511719</ele>
        <time>2018-08-08T06:41:12.000Z</time>
      </trkpt>
      <trkpt lat="44.67116" lon="6.78271">
        <ele>1684.5999755859</ele>
        <time>2018-08-08T06:41:15.000Z</time>
      </trkpt>
      <trkpt lat="44.67101" lon="6.78269">
        <ele>1686.4000244141</ele>
        <time>2018-08-08T06:41:20.000Z</time>
      </trkpt>
      <trkpt lat="44.67104" lon="6.78244">
        <ele>1686</ele>
        <time>2018-08-08T06:41:33.000Z</time>
      </trkpt>
      <trkpt lat="44.67102" lon="6.78238">
        <ele>1686.4000244141</ele>
        <time>2018-08-08T06:41:37.000Z</time>
      </trkpt>
      <trkpt lat="44.67094" lon="6.78215">
        <ele>1681</ele>
        <time>2018-08-08T06:41:53.000Z</time>
      </trkpt>
      <trkpt lat="44.67084" lon="6.78194">
        <ele>1678.5999755859</ele>
        <time>2018-08-08T06:42:07.000Z</time>
      </trkpt>
      <trkpt lat="44.67079" lon="6.7817">
        <ele>1677.4000244141</ele>
        <time>2018-08-08T06:42:22.000Z</time>
      </trkpt>
      <trkpt lat="44.67071" lon="6.78147">
        <ele>1675.5999755859</ele>
        <time>2018-08-08T06:42:36.000Z</time>
      </trkpt>
      <trkpt lat="44.67058" lon="6.78128">
        <ele>1672.8000488281</ele>
        <time>2018-08-08T06:42:51.000Z</time>
      </trkpt>
      <trkpt lat="44.67054" lon="6.78119">
        <ele>1671.5999755859</ele>
        <time>2018-08-08T06:42:58.000Z</time>
      </trkpt>
      <trkpt lat="44.67054" lon="6.78113">
        <ele>1671.1999511719</ele>
        <time>2018-08-08T06:43:03.000Z</time>
      </trkpt>
      <trkpt lat="44.67041" lon="6.78095">
        <ele>1668.1999511719</ele>
        <time>2018-08-08T06:43:33.000Z</time>
      </trkpt>
      <trkpt lat="44.67028" lon="6.78075">
        <ele>1667.5999755859</ele>
        <time>2018-08-08T06:43:48.000Z</time>
      </trkpt>
      <trkpt lat="44.67017" lon="6.78054">
        <ele>1665.8000488281</ele>
        <time>2018-08-08T06:44:03.000Z</time>
      </trkpt>
      <trkpt lat="44.67005" lon="6.78034">
        <ele>1664.5999755859</ele>
        <time>2018-08-08T06:44:18.000Z</time>
      </trkpt>
      <trkpt lat="44.66992" lon="6.78015">
        <ele>1664</ele>
        <time>2018-08-08T06:44:34.000Z</time>
      </trkpt>
      <trkpt lat="44.66981" lon="6.77994">
        <ele>1663.1999511719</ele>
        <time>2018-08-08T06:44:50.000Z</time>
      </trkpt>
      <trkpt lat="44.66971" lon="6.77972">
        <ele>1660.8000488281</ele>
        <time>2018-08-08T06:45:07.000Z</time>
      </trkpt>
      <trkpt lat="44.66959" lon="6.77953">
        <ele>1658.4000244141</ele>
        <time>2018-08-08T06:45:23.000Z</time>
      </trkpt>
      <trkpt lat="44.66948" lon="6.77934">
        <ele>1656.1999511719</ele>
        <time>2018-08-08T06:45:39.000Z</time>
      </trkpt>
      <trkpt lat="44.66934" lon="6.77917">
        <ele>1655</ele>
        <time>2018-08-08T06:45:53.000Z</time>
      </trkpt>
      <trkpt lat="44.6692" lon="6.779">
        <ele>1654</ele>
        <time>2018-08-08T06:46:07.000Z</time>
      </trkpt>
      <trkpt lat="44.66908" lon="6.77881">
        <ele>1653.1999511719</ele>
        <time>2018-08-08T06:46:23.000Z</time>
      </trkpt>
      <trkpt lat="44.66894" lon="6.77863">
        <ele>1652.8000488281</ele>
        <time>2018-08-08T06:46:40.000Z</time>
      </trkpt>
      <trkpt lat="44.66886" lon="6.77855">
        <ele>1652.8000488281</ele>
        <time>2018-08-08T06:46:50.000Z</time>
      </trkpt>
      <trkpt lat="44.66884" lon="6.77855">
        <ele>1652.8000488281</ele>
        <time>2018-08-08T06:46:52.000Z</time>
      </trkpt>
      <trkpt lat="44.66869" lon="6.77838">
        <ele>1652.4000244141</ele>
        <time>2018-08-08T06:47:21.000Z</time>
      </trkpt>
      <trkpt lat="44.66862" lon="6.77832">
        <ele>1651.4000244141</ele>
        <time>2018-08-08T06:47:29.000Z</time>
      </trkpt>
      <trkpt lat="44.66853" lon="6.77825">
        <ele>1650.5999755859</ele>
        <time>2018-08-08T06:47:39.000Z</time>
      </trkpt>
      <trkpt lat="44.66851" lon="6.77824">
        <ele>1650.4000244141</ele>
        <time>2018-08-08T06:47:43.000Z</time>
      </trkpt>
      <trkpt lat="44.66843" lon="6.77809">
        <ele>1649.5999755859</ele>
        <time>2018-08-08T06:47:54.000Z</time>
      </trkpt>
      <trkpt lat="44.66841" lon="6.77806">
        <ele>1649.4000244141</ele>
        <time>2018-08-08T06:47:59.000Z</time>
      </trkpt>
      <trkpt lat="44.66841" lon="6.77806">
        <ele>1649.4000244141</ele>
        <time>2018-08-08T06:48:01.000Z</time>
      </trkpt>
      <trkpt lat="44.66842" lon="6.77806">
        <ele>1649.4000244141</ele>
        <time>2018-08-08T06:48:03.000Z</time>
      </trkpt>
      <trkpt lat="44.66852" lon="6.77811">
        <ele>1650</ele>
        <time>2018-08-08T06:49:17.000Z</time>
      </trkpt>
      <trkpt lat="44.66835" lon="6.77824">
        <ele>1649.5999755859</ele>
        <time>2018-08-08T06:50:04.000Z</time>
      </trkpt>
      <trkpt lat="44.66843" lon="6.7782">
        <ele>1649.8000488281</ele>
        <time>2018-08-08T06:50:20.000Z</time>
      </trkpt>
      <trkpt lat="44.66846" lon="6.77818">
        <ele>1649.8000488281</ele>
        <time>2018-08-08T06:50:24.000Z</time>
      </trkpt>
      <trkpt lat="44.66849" lon="6.77814">
        <ele>1650</ele>
        <time>2018-08-08T06:50:29.000Z</time>
      </trkpt>
      <trkpt lat="44.66841" lon="6.77811">
        <ele>1649.5999755859</ele>
        <time>2018-08-08T06:51:12.000Z</time>
      </trkpt>
      <trkpt lat="44.66829" lon="6.77816">
        <ele>1649</ele>
        <time>2018-08-08T06:52:30.000Z</time>
      </trkpt>
      <trkpt lat="44.66826" lon="6.77814">
        <ele>1648.8000488281</ele>
        <time>2018-08-08T06:53:34.000Z</time>
      </trkpt>
      <trkpt lat="44.66831" lon="6.7781">
        <ele>1649</ele>
        <time>2018-08-08T06:54:56.000Z</time>
      </trkpt>
      <trkpt lat="44.66847" lon="6.7781">
        <ele>1649.8000488281</ele>
        <time>2018-08-08T06:55:56.000Z</time>
      </trkpt>
      <trkpt lat="44.66836" lon="6.77818">
        <ele>1649.4000244141</ele>
        <time>2018-08-08T06:56:23.000Z</time>
      </trkpt>
      <trkpt lat="44.66831" lon="6.77818">
        <ele>1649</ele>
        <time>2018-08-08T06:57:35.000Z</time>
      </trkpt>
      <trkpt lat="44.66829" lon="6.77813">
        <ele>1649</ele>
        <time>2018-08-08T06:58:45.000Z</time>
      </trkpt>
      <trkpt lat="44.66831" lon="6.77817">
        <ele>1649.1999511719</ele>
        <time>2018-08-08T06:59:43.000Z</time>
      </trkpt>
      <trkpt lat="44.66833" lon="6.77819">
        <ele>1649.1999511719</ele>
        <time>2018-08-08T06:59:55.000Z</time>
      </trkpt>
      <trkpt lat="44.66837" lon="6.77819">
        <ele>1649.4000244141</ele>
        <time>2018-08-08T06:59:58.000Z</time>
      </trkpt>
      <trkpt lat="44.66851" lon="6.77817">
        <ele>1650</ele>
        <time>2018-08-08T07:00:16.000Z</time>
      </trkpt>
      <trkpt lat="44.66848" lon="6.77815">
        <ele>1649.8000488281</ele>
        <time>2018-08-08T07:00:18.000Z</time>
      </trkpt>
      <trkpt lat="44.6684" lon="6.77793">
        <ele>1649.1999511719</ele>
        <time>2018-08-08T07:00:29.000Z</time>
      </trkpt>
      <trkpt lat="44.66824" lon="6.77781">
        <ele>1648.4000244141</ele>
        <time>2018-08-08T07:00:43.000Z</time>
      </trkpt>
      <trkpt lat="44.66809" lon="6.77766">
        <ele>1647.4000244141</ele>
        <time>2018-08-08T07:00:56.000Z</time>
      </trkpt>
      <trkpt lat="44.66796" lon="6.77746">
        <ele>1646.5999755859</ele>
        <time>2018-08-08T07:01:13.000Z</time>
      </trkpt>
      <trkpt lat="44.66789" lon="6.77736">
        <ele>1646</ele>
        <time>2018-08-08T07:01:24.000Z</time>
      </trkpt>
      <trkpt lat="44.66789" lon="6.77736">
        <ele>1646</ele>
        <time>2018-08-08T07:01:26.000Z</time>
      </trkpt>
      <trkpt lat="44.66787" lon="6.77736">
        <ele>1646</ele>
        <time>2018-08-08T07:01:28.000Z</time>
      </trkpt>
      <trkpt lat="44.66788" lon="6.77734">
        <ele>1646</ele>
        <time>2018-08-08T07:01:31.000Z</time>
      </trkpt>
      <trkpt lat="44.6679" lon="6.77733">
        <ele>1646</ele>
        <time>2018-08-08T07:01:35.000Z</time>
      </trkpt>
      <trkpt lat="44.66794" lon="6.7773">
        <ele>1646</ele>
        <time>2018-08-08T07:02:23.000Z</time>
      </trkpt>
      <trkpt lat="44.66786" lon="6.77725">
        <ele>1645.8000488281</ele>
        <time>2018-08-08T07:03:38.000Z</time>
      </trkpt>
      <trkpt lat="44.66791" lon="6.77714">
        <ele>1645.8000488281</ele>
        <time>2018-08-08T07:04:33.000Z</time>
      </trkpt>
      <trkpt lat="44.66779" lon="6.77723">
        <ele>1645.4000244141</ele>
        <time>2018-08-08T07:06:02.000Z</time>
      </trkpt>
      <trkpt lat="44.66775" lon="6.77716">
        <ele>1645</ele>
        <time>2018-08-08T07:06:53.000Z</time>
      </trkpt>
      <trkpt lat="44.66786" lon="6.77718">
        <ele>1645.8000488281</ele>
        <time>2018-08-08T07:07:23.000Z</time>
      </trkpt>
      <trkpt lat="44.66788" lon="6.77727">
        <ele>1645.8000488281</ele>
        <time>2018-08-08T07:08:49.000Z</time>
      </trkpt>
      <trkpt lat="44.66795" lon="6.77725">
        <ele>1646</ele>
        <time>2018-08-08T07:09:34.000Z</time>
      </trkpt>
      <trkpt lat="44.66798" lon="6.77714">
        <ele>1645.8000488281</ele>
        <time>2018-08-08T07:11:18.000Z</time>
      </trkpt>
      <trkpt lat="44.66792" lon="6.77723">
        <ele>1645.8000488281</ele>
        <time>2018-08-08T07:12:04.000Z</time>
      </trkpt>
      <trkpt lat="44.66804" lon="6.77715">
        <ele>1646</ele>
        <time>2018-08-08T07:13:10.000Z</time>
      </trkpt>
      <trkpt lat="44.66809" lon="6.77717">
        <ele>1646</ele>
        <time>2018-08-08T07:14:12.000Z</time>
      </trkpt>
      <trkpt lat="44.66803" lon="6.77718">
        <ele>1646</ele>
        <time>2018-08-08T07:15:04.000Z</time>
      </trkpt>
      <trkpt lat="44.66789" lon="6.77727">
        <ele>1646</ele>
        <time>2018-08-08T07:16:01.000Z</time>
      </trkpt>
      <trkpt lat="44.66779" lon="6.77734">
        <ele>1645.5999755859</ele>
        <time>2018-08-08T07:17:13.000Z</time>
      </trkpt>
      <trkpt lat="44.6677" lon="6.77737">
        <ele>1645</ele>
        <time>2018-08-08T07:17:54.000Z</time>
      </trkpt>
      <trkpt lat="44.66785" lon="6.77729">
        <ele>1645.8000488281</ele>
        <time>2018-08-08T07:18:29.000Z</time>
      </trkpt>
      <trkpt lat="44.66803" lon="6.77728">
        <ele>1646</ele>
        <time>2018-08-08T07:19:00.000Z</time>
      </trkpt>
      <trkpt lat="44.66786" lon="6.77724">
        <ele>1645.8000488281</ele>
        <time>2018-08-08T07:19:58.000Z</time>
      </trkpt>
      <trkpt lat="44.66793" lon="6.77721">
        <ele>1645.8000488281</ele>
        <time>2018-08-08T07:20:33.000Z</time>
      </trkpt>
      <trkpt lat="44.66802" lon="6.77723">
        <ele>1646</ele>
        <time>2018-08-08T07:21:00.000Z</time>
      </trkpt>
      <trkpt lat="44.66801" lon="6.77725">
        <ele>1646</ele>
        <time>2018-08-08T07:21:49.000Z</time>
      </trkpt>
      <trkpt lat="44.66819" lon="6.77718">
        <ele>1646.1999511719</ele>
        <time>2018-08-08T07:22:15.000Z</time>
      </trkpt>
      <trkpt lat="44.66815" lon="6.77712">
        <ele>1646</ele>
        <time>2018-08-08T07:22:39.000Z</time>
      </trkpt>
      <trkpt lat="44.6679" lon="6.77723">
        <ele>1645.8000488281</ele>
        <time>2018-08-08T07:23:54.000Z</time>
      </trkpt>
      <trkpt lat="44.66796" lon="6.77724">
        <ele>1646</ele>
        <time>2018-08-08T07:24:59.000Z</time>
      </trkpt>
      <trkpt lat="44.66792" lon="6.77725">
        <ele>1646</ele>
        <time>2018-08-08T07:27:04.000Z</time>
      </trkpt>
      <trkpt lat="44.66789" lon="6.77728">
        <ele>1646</ele>
        <time>2018-08-08T07:27:54.000Z</time>
      </trkpt>
      <trkpt lat="44.66801" lon="6.77728">
        <ele>1646</ele>
        <time>2018-08-08T07:28:40.000Z</time>
      </trkpt>
      <trkpt lat="44.66807" lon="6.77727">
        <ele>1646.1999511719</ele>
        <time>2018-08-08T07:29:10.000Z</time>
      </trkpt>
      <trkpt lat="44.66791" lon="6.77723">
        <ele>1645.8000488281</ele>
        <time>2018-08-08T07:29:39.000Z</time>
      </trkpt>
      <trkpt lat="44.66779" lon="6.77726">
        <ele>1645.4000244141</ele>
        <time>2018-08-08T07:31:15.000Z</time>
      </trkpt>
      <trkpt lat="44.66786" lon="6.77723">
        <ele>1645.8000488281</ele>
        <time>2018-08-08T07:31:55.000Z</time>
      </trkpt>
      <trkpt lat="44.66794" lon="6.77724">
        <ele>1646</ele>
        <time>2018-08-08T07:32:26.000Z</time>
      </trkpt>
      <trkpt lat="44.66812" lon="6.77727">
        <ele>1646.1999511719</ele>
        <time>2018-08-08T07:32:53.000Z</time>
      </trkpt>
      <trkpt lat="44.66802" lon="6.77717">
        <ele>1646</ele>
        <time>2018-08-08T07:33:26.000Z</time>
      </trkpt>
      <trkpt lat="44.66783" lon="6.77711">
        <ele>1645.5999755859</ele>
        <time>2018-08-08T07:33:36.000Z</time>
      </trkpt>
      <trkpt lat="44.66809" lon="6.77722">
        <ele>1646</ele>
        <time>2018-08-08T07:34:00.000Z</time>
      </trkpt>
      <trkpt lat="44.66806" lon="6.77728">
        <ele>1646.1999511719</ele>
        <time>2018-08-08T07:34:45.000Z</time>
      </trkpt>
      <trkpt lat="44.66804" lon="6.77719">
        <ele>1646</ele>
        <time>2018-08-08T07:35:18.000Z</time>
      </trkpt>
      <trkpt lat="44.66794" lon="6.77721">
        <ele>1645.8000488281</ele>
        <time>2018-08-08T07:35:42.000Z</time>
      </trkpt>
    </trkseg>
  </trk>
</gpx>